createdAt,value
2018-09-19T00:01:26.937Z,4.13
2018-09-19T00:03:54.242Z,4.70
2018-09-19T00:06:21.496Z,4.40
2018-09-19T00:08:48.783Z,4.60
2018-09-19T00:11:16.048Z,5.53
2018-09-19T00:13:43.397Z,4.53
2018-09-19T00:16:10.643Z,4.70
2018-09-19T00:24:17.933Z,4.27
2018-09-19T00:26:45.177Z,4.20
2018-09-19T00:29:12.446Z,4.17
2018-09-19T00:31:39.722Z,4.47
2018-09-19T00:34:06.972Z,4.20
2018-09-19T00:36:34.218Z,4.77
2018-09-19T00:39:01.454Z,4.20
2018-09-19T00:41:28.712Z,4.20
2018-09-19T00:43:55.962Z,3.73
2018-09-19T00:46:23.208Z,4.13
2018-09-19T00:48:50.501Z,4.33
2018-09-19T00:51:17.748Z,3.60
2018-09-19T00:53:45.031Z,4.10
2018-09-19T00:56:12.489Z,4.03
2018-09-19T00:58:39.764Z,3.80
2018-09-19T01:01:07.006Z,4.40
2018-09-19T01:03:34.331Z,4.33
2018-09-19T01:06:01.584Z,4.20
2018-09-19T01:08:28.865Z,4.00
2018-09-19T01:10:56.104Z,4.23
2018-09-19T01:13:23.389Z,3.57
2018-09-19T01:15:50.619Z,4.30
2018-09-19T01:18:17.894Z,4.43
2018-09-19T01:20:45.243Z,3.73
2018-09-19T01:23:12.510Z,4.10
2018-09-19T01:25:39.764Z,4.37
2018-09-19T01:28:07.185Z,4.53
2018-09-19T01:30:34.425Z,4.33
2018-09-19T01:33:01.697Z,4.60
2018-09-19T01:35:28.941Z,4.80
2018-09-19T01:37:56.286Z,4.03
2018-09-19T01:40:23.560Z,4.13
2018-09-19T01:42:56.998Z,4.87
2018-09-19T01:45:24.264Z,4.20
2018-09-19T01:47:51.491Z,3.93
2018-09-19T01:50:18.756Z,3.90
2018-09-19T01:52:45.999Z,4.03
2018-09-19T01:55:13.269Z,3.70
2018-09-19T01:57:40.739Z,4.17
2018-09-19T02:00:08.042Z,3.63
2018-09-19T02:02:35.283Z,3.77
2018-09-19T02:05:02.523Z,3.90
2018-09-19T02:07:29.765Z,3.93
2018-09-19T02:09:57.020Z,3.37
2018-09-19T02:12:24.270Z,3.43
2018-09-19T02:14:51.511Z,3.30
2018-09-19T02:17:18.757Z,3.73
2018-09-19T02:19:46.047Z,3.40
2018-09-19T02:22:13.317Z,3.23
2018-09-19T02:24:40.643Z,3.80
2018-09-19T02:27:07.920Z,3.80
2018-09-19T02:29:35.186Z,3.90
2018-09-19T02:32:02.597Z,3.17
2018-09-19T02:34:29.863Z,4.10
2018-09-19T02:36:57.121Z,3.73
2018-09-19T02:39:24.366Z,3.17
2018-09-19T02:41:51.599Z,3.90
2018-09-19T02:44:18.859Z,3.43
2018-09-19T02:46:46.104Z,3.97
2018-09-19T02:49:13.396Z,3.50
2018-09-19T02:51:40.652Z,3.70
2018-09-19T02:54:07.935Z,4.00
2018-09-19T02:56:35.216Z,3.20
2018-09-19T02:59:02.493Z,3.80
2018-09-19T03:01:29.827Z,3.93
2018-09-19T03:03:57.132Z,3.57
2018-09-19T03:06:24.382Z,3.33
2018-09-19T03:08:51.624Z,3.70
2018-09-19T03:11:18.918Z,3.90
2018-09-19T03:13:46.188Z,3.53
2018-09-19T03:16:13.477Z,3.33
2018-09-19T03:19:02.512Z,4.00
2018-09-19T03:21:31.268Z,3.87
2018-09-19T03:23:58.827Z,4.10
2018-09-19T03:26:26.131Z,4.30
2018-09-19T03:28:53.382Z,3.90
2018-09-19T03:31:20.649Z,4.07
2018-09-19T03:33:47.895Z,3.40
2018-09-19T03:36:15.163Z,3.80
2018-09-19T03:38:42.398Z,3.67
2018-09-19T03:41:09.661Z,4.10
2018-09-19T03:43:36.886Z,3.17
2018-09-19T03:46:04.220Z,3.67
2018-09-19T03:48:31.441Z,3.60
2018-09-19T03:50:58.713Z,4.00
2018-09-19T03:53:25.960Z,3.40
2018-09-19T03:55:53.262Z,3.63
2018-09-19T03:58:20.569Z,3.67
2018-09-19T04:00:47.870Z,3.30
2018-09-19T04:03:15.159Z,3.60
2018-09-19T04:05:52.866Z,3.77
2018-09-19T04:08:20.142Z,3.37
2018-09-19T04:10:48.254Z,3.47
2018-09-19T04:13:15.600Z,3.53
2018-09-19T04:15:42.842Z,3.33
2018-09-19T04:18:10.274Z,3.50
2018-09-19T04:20:37.534Z,3.87
2018-09-19T04:23:04.840Z,3.67
2018-09-19T04:25:32.152Z,3.33
2018-09-19T04:27:59.377Z,3.70
2018-09-19T04:30:26.632Z,4.03
2018-09-19T04:32:53.894Z,4.03
2018-09-19T04:35:21.239Z,3.60
2018-09-19T04:37:48.518Z,3.97
2018-09-19T04:40:15.838Z,3.10
2018-09-19T04:42:43.235Z,4.20
2018-09-19T04:45:10.626Z,3.60
2018-09-19T04:47:37.913Z,3.50
2018-09-19T04:50:05.340Z,3.40
2018-09-19T04:52:35.242Z,3.17
2018-09-19T04:55:03.700Z,4.20
2018-09-19T04:57:31.130Z,4.53
2018-09-19T04:59:58.513Z,4.00
2018-09-19T05:02:26.596Z,4.70
2018-09-19T05:04:53.951Z,5.33
2018-09-19T05:07:21.466Z,5.33
2018-09-19T05:09:48.846Z,4.47
2018-09-19T05:12:16.526Z,4.50
2018-09-19T05:14:43.797Z,4.50
2018-09-19T05:17:11.372Z,4.00
2018-09-19T05:19:38.744Z,4.40
2018-09-19T05:22:06.341Z,4.13
2018-09-19T05:24:35.273Z,4.17
2018-09-19T05:27:03.386Z,3.57
2018-09-19T05:29:30.777Z,3.57
2018-09-19T05:31:58.186Z,4.67
2018-09-19T05:34:25.544Z,4.13
2018-09-19T05:36:54.473Z,4.33
2018-09-19T05:39:22.507Z,4.53
2018-09-19T05:41:49.871Z,3.83
2018-09-19T05:44:17.251Z,3.33
2018-09-19T05:46:44.647Z,3.90
2018-09-19T05:49:12.078Z,4.10
2018-09-19T05:51:39.387Z,4.43
2018-09-19T05:54:06.784Z,4.50
2018-09-19T05:56:34.252Z,3.57
2018-09-19T05:59:01.493Z,3.87
2018-09-19T06:01:29.246Z,3.93
2018-09-19T06:03:56.610Z,4.10
2018-09-19T06:06:23.952Z,4.17
2018-09-19T06:08:51.376Z,5.13
2018-09-19T06:11:18.781Z,4.43
2018-09-19T06:13:46.460Z,5.47
2018-09-19T06:16:13.844Z,4.80
2018-09-19T06:18:41.229Z,5.13
2018-09-19T06:21:08.519Z,5.03
2018-09-19T06:23:35.839Z,5.43
2018-09-19T06:26:03.212Z,4.97
2018-09-19T06:28:30.500Z,5.13
2018-09-19T06:30:57.816Z,5.23
2018-09-19T06:33:25.188Z,5.77
2018-09-19T06:35:52.451Z,4.60
2018-09-19T06:38:20.385Z,4.87
2018-09-19T06:40:47.936Z,3.90
2018-09-19T06:43:16.422Z,4.17
2018-09-19T06:45:44.702Z,3.73
2018-09-19T06:48:13.069Z,4.30
2018-09-19T06:50:40.783Z,4.03
2018-09-19T06:53:09.319Z,5.03
2018-09-19T06:55:37.420Z,3.60
2018-09-19T06:58:05.952Z,4.33
2018-09-19T07:00:33.612Z,4.27
2018-09-19T07:03:00.945Z,3.50
2018-09-19T07:05:28.281Z,3.60
2018-09-19T07:07:55.623Z,3.50
2018-09-19T07:10:22.909Z,3.70
2018-09-19T07:12:50.308Z,3.50
2018-09-19T07:15:17.922Z,3.17
2018-09-19T07:17:45.312Z,3.50
2018-09-19T07:20:12.635Z,3.53
2018-09-19T07:22:40.017Z,3.22
2018-09-19T07:25:07.550Z,2.98
2018-09-19T07:27:34.887Z,3.58
2018-09-19T07:30:02.264Z,3.25
2018-09-19T07:32:29.602Z,3.70
2018-09-19T07:34:56.956Z,3.33
2018-09-19T07:37:24.280Z,3.42
2018-09-19T07:39:51.593Z,3.20
2018-09-19T07:42:18.954Z,3.35
2018-09-19T07:44:46.300Z,3.45
2018-09-19T07:47:13.630Z,3.40
2018-09-19T07:49:40.978Z,3.42
2018-09-19T07:52:08.280Z,3.27
2018-09-19T07:54:35.749Z,2.87
2018-09-19T07:57:03.090Z,3.42
2018-09-19T07:59:30.649Z,3.27
2018-09-19T08:01:58.197Z,3.45
2018-09-19T08:04:25.600Z,3.25
2018-09-19T08:06:52.936Z,4.03
2018-09-19T08:09:20.449Z,3.35
2018-09-19T08:11:47.837Z,3.08
2018-09-19T08:14:15.228Z,3.37
2018-09-19T08:16:42.706Z,3.45
2018-09-19T08:19:10.904Z,2.90
2018-09-19T08:21:38.216Z,3.75
2018-09-19T08:24:05.520Z,3.37
2018-09-19T08:26:32.948Z,3.08
2018-09-19T08:29:00.512Z,2.83
2018-09-19T08:31:27.945Z,4.15
2018-09-19T08:33:55.339Z,3.37
2018-09-19T08:36:22.674Z,3.10
2018-09-19T08:38:50.011Z,3.37
2018-09-19T08:41:17.323Z,3.42
2018-09-19T08:43:44.723Z,3.40
2018-09-19T08:46:12.386Z,3.50
2018-09-19T08:48:39.778Z,3.20
2018-09-19T08:51:07.139Z,3.87
2018-09-19T08:53:34.501Z,3.85
2018-09-19T08:56:01.782Z,3.55
2018-09-19T08:58:29.308Z,3.70
2018-09-19T09:00:56.824Z,4.03
2018-09-19T09:03:24.147Z,4.05
2018-09-19T09:05:51.575Z,3.90
2018-09-19T09:08:18.861Z,4.35
2018-09-19T09:10:46.335Z,4.28
2018-09-19T09:13:13.815Z,4.55
2018-09-19T09:15:41.289Z,4.90
2018-09-19T09:18:08.727Z,5.25
2018-09-19T09:20:36.103Z,4.75
2018-09-19T09:23:03.619Z,4.25
2018-09-19T09:25:31.000Z,4.62
2018-09-19T09:27:58.494Z,5.85
2018-09-19T09:30:25.962Z,4.42
2018-09-19T09:32:53.316Z,4.62
2018-09-19T09:35:20.691Z,4.87
2018-09-19T09:37:48.912Z,5.10
2018-09-19T09:40:16.354Z,4.50
2018-09-19T09:42:43.631Z,4.83
2018-09-19T09:45:12.015Z,4.37
2018-09-19T09:47:39.824Z,4.12
2018-09-19T09:50:07.639Z,4.47
2018-09-19T09:52:34.928Z,3.70
2018-09-19T09:55:02.369Z,4.40
2018-09-19T09:57:29.678Z,4.03
2018-09-19T09:59:57.015Z,3.70
2018-09-19T10:02:24.964Z,5.10
2018-09-19T10:04:52.325Z,4.05
2018-09-19T10:07:19.632Z,4.30
2018-09-19T10:09:46.968Z,4.08
2018-09-19T10:12:15.260Z,4.05
2018-09-19T10:14:42.779Z,3.87
2018-09-19T10:17:10.083Z,4.40
2018-09-19T10:19:37.486Z,4.10
2018-09-19T10:22:04.885Z,3.77
2018-09-19T10:24:32.265Z,3.45
2018-09-19T10:27:00.131Z,3.25
2018-09-19T10:29:27.587Z,3.20
2018-09-19T10:31:54.894Z,2.95
2018-09-19T10:34:22.299Z,3.20
2018-09-19T10:36:50.116Z,3.47
2018-09-19T10:39:17.475Z,3.67
2018-09-19T10:41:44.785Z,4.05
2018-09-19T10:44:12.136Z,3.55
2018-09-19T10:46:39.514Z,3.10
2018-09-19T10:49:06.983Z,3.72
2018-09-19T10:51:34.277Z,3.52
2018-09-19T10:54:01.722Z,2.95
2018-09-19T10:56:29.700Z,2.92
2018-09-19T10:58:57.256Z,2.90
2018-09-19T11:01:25.611Z,3.02
2018-09-19T11:03:53.080Z,3.08
2018-09-19T11:06:20.448Z,2.90
2018-09-19T11:08:47.767Z,3.30
2018-09-19T11:11:15.260Z,2.58
2018-09-19T11:13:42.812Z,3.52
2018-09-19T11:16:10.267Z,3.52
2018-09-19T11:18:37.593Z,3.37
2018-09-19T11:23:39.169Z,3.60
2018-09-19T11:26:07.548Z,3.33
2018-09-19T11:28:36.119Z,2.80
2018-09-19T11:31:03.572Z,3.50
2018-09-19T11:33:31.044Z,3.42
2018-09-19T11:35:58.417Z,2.95
2018-09-19T11:38:34.905Z,3.22
2018-09-19T11:41:02.636Z,2.98
2018-09-19T11:43:30.759Z,2.72
2018-09-19T11:46:03.414Z,2.85
2018-09-19T11:48:30.741Z,3.30
2018-09-19T11:50:58.204Z,3.35
2018-09-19T11:53:27.635Z,3.27
2018-09-19T11:55:55.772Z,2.70
2018-09-19T11:58:23.117Z,2.77
2018-09-19T12:00:50.727Z,2.72
2018-09-19T12:03:18.089Z,3.05
2018-09-19T12:05:45.415Z,3.30
2018-09-19T12:08:12.845Z,3.17
2018-09-19T12:10:41.941Z,3.00
2018-09-19T12:13:09.258Z,3.12
2018-09-19T12:15:36.740Z,2.90
2018-09-19T12:18:04.199Z,3.17
2018-09-19T12:20:31.899Z,3.12
2018-09-19T12:22:59.274Z,3.12
2018-09-19T12:25:27.235Z,3.10
2018-09-19T12:27:54.652Z,3.70
2018-09-19T12:30:23.215Z,3.47
2018-09-19T12:32:50.555Z,2.92
2018-09-19T12:35:18.537Z,3.02
2018-09-19T12:37:46.106Z,3.10
2018-09-19T12:40:13.674Z,2.87
2018-09-19T12:42:41.078Z,3.55
2018-09-19T12:45:08.757Z,3.15
2018-09-19T12:47:36.228Z,3.62
2018-09-19T12:50:03.723Z,3.65
2018-09-19T12:52:31.195Z,3.47
2018-09-19T12:54:58.575Z,4.12
2018-09-19T12:57:25.924Z,3.02
2018-09-19T12:59:53.306Z,3.10
2018-09-19T13:02:20.700Z,3.98
2018-09-19T13:04:48.042Z,2.52
2018-09-19T13:07:16.216Z,3.15
2018-09-19T13:09:43.581Z,3.27
2018-09-19T13:12:10.991Z,2.60
2018-09-19T13:14:38.323Z,2.90
2018-09-19T13:17:05.711Z,3.05
2018-09-19T13:19:33.109Z,3.40
2018-09-19T13:22:00.491Z,3.00
2018-09-19T13:24:27.885Z,2.95
2018-09-19T13:26:55.281Z,3.10
2018-09-19T13:29:23.189Z,3.27
2018-09-19T13:31:50.614Z,2.95
2018-09-19T13:34:18.000Z,2.83
2018-09-19T13:36:45.415Z,2.75
2018-09-19T13:39:13.319Z,2.12
2018-09-19T13:41:42.269Z,3.05
2018-09-19T13:44:09.946Z,2.60
2018-09-19T13:46:37.952Z,3.05
2018-09-19T13:49:10.054Z,2.62
2018-09-19T13:51:38.135Z,2.60
2018-09-19T13:54:05.627Z,2.62
2018-09-19T13:56:33.745Z,3.17
2018-09-19T13:59:01.200Z,2.62
2018-09-19T14:01:28.657Z,2.75
2018-09-19T14:03:56.129Z,2.52
2018-09-19T14:06:23.617Z,2.30
2018-09-19T14:08:52.047Z,2.55
2018-09-19T14:11:19.380Z,3.08
2018-09-19T14:13:46.784Z,2.62
2018-09-19T14:16:14.181Z,2.42
2018-09-19T14:18:42.094Z,2.65
2018-09-19T14:21:09.907Z,2.90
2018-09-19T14:23:37.427Z,2.47
2018-09-19T14:26:04.855Z,2.85
2018-09-19T14:28:32.287Z,2.37
2018-09-19T14:31:00.701Z,2.55
2018-09-19T14:33:28.980Z,2.10
2018-09-19T14:35:57.188Z,2.80
2018-09-19T14:38:27.651Z,2.72
2018-09-19T14:40:55.568Z,2.98
2018-09-19T14:43:23.079Z,2.47
2018-09-19T14:45:50.452Z,2.77
2018-09-19T14:48:17.977Z,3.02
2018-09-19T14:50:46.921Z,2.92
2018-09-19T14:53:15.151Z,3.12
2018-09-19T14:55:43.249Z,2.80
2018-09-19T14:58:10.668Z,2.67
2018-09-19T15:00:37.977Z,2.55
2018-09-19T15:03:05.711Z,2.40
2018-09-19T15:05:33.071Z,2.50
2018-09-19T15:08:00.512Z,2.33
2018-09-19T15:10:29.907Z,2.62
2018-09-19T15:12:57.354Z,2.02
2018-09-19T15:15:24.809Z,2.77
2018-09-19T15:17:52.306Z,2.25
2018-09-19T15:20:19.657Z,2.50
2018-09-19T15:22:47.106Z,2.85
2018-09-19T15:25:14.579Z,2.42
2018-09-19T15:27:42.512Z,2.40
2018-09-19T15:30:09.886Z,2.27
2018-09-19T15:32:37.420Z,2.60
2018-09-19T15:35:05.728Z,2.20
2018-09-19T15:37:33.899Z,2.27
2018-09-19T15:40:01.324Z,2.22
2018-09-19T15:42:28.808Z,2.40
2018-09-19T15:44:56.167Z,2.50
2018-09-19T15:47:23.727Z,2.50
2018-09-19T15:49:51.240Z,2.27
2018-09-19T15:52:19.330Z,2.70
2018-09-19T15:54:46.825Z,2.10
2018-09-19T15:57:14.472Z,2.62
2018-09-19T15:59:42.734Z,2.87
2018-09-19T16:02:10.139Z,2.27
2018-09-19T16:04:37.619Z,2.20
2018-09-19T16:07:05.056Z,2.85
2018-09-19T16:09:33.101Z,2.33
2018-09-19T16:12:00.457Z,2.10
2018-09-19T16:14:27.917Z,3.15
2018-09-19T16:16:55.273Z,2.55
2018-09-19T16:19:22.723Z,2.22
2018-09-19T16:21:50.088Z,2.22
2018-09-19T16:24:17.443Z,2.95
2018-09-19T16:26:44.801Z,2.42
2018-09-19T16:29:12.251Z,2.75
2018-09-19T16:31:39.588Z,2.55
2018-09-19T16:34:07.201Z,2.37
2018-09-19T16:36:34.602Z,2.83
2018-09-19T16:39:02.246Z,2.92
2018-09-19T16:41:30.177Z,2.67
2018-09-19T16:44:04.309Z,2.37
2018-09-19T16:46:31.641Z,2.67
2018-09-19T16:49:10.932Z,2.27
2018-09-19T16:51:38.451Z,2.65
2018-09-19T16:54:05.859Z,3.42
2018-09-19T16:56:33.300Z,2.75
2018-09-19T16:59:00.792Z,2.50
2018-09-19T17:01:28.739Z,2.70
2018-09-19T17:03:56.367Z,2.35
2018-09-19T17:06:23.898Z,2.80
2018-09-19T17:08:51.260Z,2.40
2018-09-19T17:11:23.440Z,2.27
2018-09-19T17:13:55.396Z,2.20
2018-09-19T17:16:28.598Z,2.20
2018-09-19T17:19:02.522Z,2.12
2018-09-19T17:21:35.989Z,2.75
2018-09-19T17:24:09.456Z,2.75
2018-09-19T17:26:42.444Z,2.72
2018-09-19T17:29:15.796Z,2.50
2018-09-19T17:31:47.717Z,2.17
2018-09-19T17:34:19.447Z,2.50
2018-09-19T17:36:51.794Z,2.98
2018-09-19T17:39:23.432Z,2.58
2018-09-19T17:41:55.159Z,2.77
2018-09-19T17:44:24.689Z,2.70
2018-09-19T17:46:53.408Z,2.62
2018-09-19T17:49:21.928Z,2.77
2018-09-19T17:51:50.612Z,2.47
2018-09-19T17:54:19.105Z,2.87
2018-09-19T17:56:47.161Z,2.40
2018-09-19T17:59:15.113Z,2.47
2018-09-19T18:01:42.947Z,2.55
2018-09-19T18:04:10.912Z,2.62
2018-09-19T18:06:38.913Z,2.87
2018-09-19T18:09:07.560Z,2.90
2018-09-19T18:11:36.334Z,2.62
2018-09-19T18:14:04.515Z,3.05
2018-09-19T18:16:32.262Z,2.37
2018-09-19T18:19:00.382Z,3.08
2018-09-19T18:21:28.443Z,2.80
2018-09-19T18:23:56.293Z,2.87
2018-09-19T18:26:24.264Z,3.08
2018-09-19T18:28:52.799Z,2.65
2018-09-19T18:31:21.182Z,2.70
2018-09-19T18:33:49.670Z,2.90
2018-09-19T18:36:17.867Z,2.50
2018-09-19T18:38:45.612Z,2.52
2018-09-19T18:41:13.571Z,2.85
2018-09-19T18:43:41.392Z,2.52
2018-09-19T18:46:09.528Z,2.60
2018-09-19T18:48:37.386Z,2.50
2018-09-19T18:51:06.217Z,2.52
2018-09-19T18:53:34.170Z,2.90
2018-09-19T18:56:02.140Z,2.50
2018-09-19T18:58:30.033Z,3.45
2018-09-19T19:00:58.496Z,2.20
2018-09-19T19:03:26.454Z,2.50
2018-09-19T19:05:55.352Z,2.47
2018-09-19T19:08:23.586Z,2.53
2018-09-19T19:10:51.445Z,2.30
2018-09-19T19:13:20.171Z,2.40
2018-09-19T19:15:48.344Z,3.10
2018-09-19T19:18:16.503Z,3.00
2018-09-19T19:20:45.302Z,2.50
2018-09-19T19:23:13.140Z,2.70
2018-09-19T19:25:42.687Z,2.50
2018-09-19T19:28:10.819Z,2.90
2018-09-19T19:30:39.206Z,2.67
2018-09-19T19:33:07.298Z,2.73
2018-09-19T19:35:35.633Z,2.70
2018-09-19T19:38:04.690Z,2.60
2018-09-19T19:40:32.566Z,2.70
2018-09-19T19:43:00.720Z,2.77
2018-09-19T19:45:29.176Z,3.07
2018-09-19T19:47:57.083Z,2.80
2018-09-19T19:50:25.102Z,2.87
2018-09-19T19:52:53.554Z,2.83
2018-09-19T19:55:21.316Z,2.90
2018-09-19T19:57:49.893Z,2.87
2018-09-19T20:00:18.057Z,2.80
2018-09-19T20:02:45.797Z,2.93
2018-09-19T20:05:14.648Z,2.80
2018-09-19T20:07:43.172Z,2.60
2018-09-19T20:10:11.408Z,2.50
2018-09-19T20:12:39.244Z,3.27
2018-09-19T20:15:07.163Z,2.53
2018-09-19T20:17:35.248Z,3.00
2018-09-19T20:20:03.131Z,3.07
2018-09-19T20:22:31.069Z,2.40
2018-09-19T20:24:59.149Z,3.53
2018-09-19T20:27:26.883Z,2.30
2018-09-19T20:29:55.607Z,2.77
2018-09-19T20:32:23.847Z,3.03
2018-09-19T20:34:51.978Z,2.70
2018-09-19T20:37:19.897Z,3.20
2018-09-19T20:39:47.480Z,3.33
2018-09-19T20:42:15.917Z,2.93
2018-09-19T20:44:44.029Z,2.80
2018-09-19T20:47:12.075Z,2.37
2018-09-19T20:49:40.766Z,3.20
2018-09-19T20:52:08.725Z,2.63
2018-09-19T20:54:37.111Z,2.77
2018-09-19T20:57:05.233Z,3.23
2018-09-19T20:59:33.493Z,2.57
2018-09-19T21:02:01.672Z,2.80
2018-09-19T21:04:29.481Z,2.87
2018-09-19T21:06:57.182Z,2.93
2018-09-19T21:09:24.977Z,2.60
2018-09-19T21:11:52.897Z,2.90
2018-09-19T21:14:21.178Z,2.67
2018-09-19T21:16:48.499Z,3.00
2018-09-19T21:19:15.771Z,3.50
2018-09-19T21:21:43.230Z,3.17
2018-09-19T21:24:10.471Z,2.57
2018-09-19T21:26:38.308Z,3.00
2018-09-19T21:29:05.645Z,2.53
2018-09-19T21:31:33.171Z,3.03
2018-09-19T21:34:00.456Z,2.97
2018-09-19T21:36:27.712Z,3.47
2018-09-19T21:38:54.955Z,3.20
2018-09-19T21:41:22.367Z,2.60
2018-09-19T21:43:49.631Z,3.53
2018-09-19T21:46:16.932Z,2.43
2018-09-19T21:48:44.179Z,2.50
2018-09-19T21:51:11.464Z,3.13
2018-09-19T21:53:38.678Z,2.53
2018-09-19T21:56:06.030Z,2.73
2018-09-19T21:58:33.268Z,2.67
2018-09-19T22:01:06.480Z,2.70
2018-09-19T22:03:34.203Z,2.93
2018-09-19T22:06:01.480Z,2.80
2018-09-19T22:08:29.258Z,3.07
2018-09-19T22:10:56.532Z,2.40
2018-09-19T22:13:23.768Z,3.10
2018-09-19T22:15:51.038Z,2.77
2018-09-19T22:18:18.290Z,2.83
2018-09-19T22:20:45.508Z,3.00
2018-09-19T22:23:13.227Z,2.80
2018-09-19T22:25:40.546Z,2.73
2018-09-19T22:28:07.792Z,2.90
2018-09-19T22:30:35.036Z,2.83
2018-09-19T22:33:02.305Z,3.17
2018-09-19T22:35:29.552Z,2.60
2018-09-19T22:37:56.805Z,3.30
2018-09-19T22:40:24.035Z,2.90
2018-09-19T22:42:51.306Z,2.93
2018-09-19T22:45:19.156Z,2.40
2018-09-19T22:47:47.412Z,2.93
2018-09-19T22:50:14.707Z,3.23
2018-09-19T22:52:41.992Z,3.23
2018-09-19T22:55:09.224Z,3.30
2018-09-19T22:57:36.570Z,2.93
2018-09-19T23:00:04.000Z,2.83
2018-09-19T23:02:31.259Z,3.80
2018-09-19T23:04:58.524Z,2.87
2018-09-19T23:07:25.912Z,2.57
2018-09-19T23:09:53.446Z,2.87
2018-09-19T23:12:20.761Z,2.83
2018-09-19T23:14:48.019Z,3.40
2018-09-19T23:17:15.286Z,3.03
2018-09-19T23:19:42.542Z,3.10
2018-09-19T23:22:09.825Z,2.57
2018-09-19T23:24:37.475Z,3.20
2018-09-19T23:27:04.776Z,3.17
2018-09-19T23:29:32.059Z,3.17
2018-09-19T23:31:59.523Z,3.30
2018-09-19T23:34:26.767Z,2.73
2018-09-19T23:36:54.064Z,3.20
2018-09-19T23:39:21.313Z,2.80
2018-09-19T23:41:48.633Z,3.40
2018-09-19T23:44:15.864Z,2.73
2018-09-19T23:46:43.772Z,3.53
2018-09-19T23:49:11.040Z,3.03
2018-09-19T23:51:38.306Z,2.70
2018-09-19T23:54:05.892Z,3.50
2018-09-19T23:56:33.115Z,2.83
2018-09-19T23:59:00.373Z,3.37
